Pagrindinis puslapis
METAR-TAF:

METAR-TAF

Oro uostai :

Florești, Moldavija

platuma: 47-51-45N, ilguma: 028-12-45E, Aukštis: 101 m

Dabartinis oras

Ataskaita buvo paskelbta 2 valandos ir 25 minutes, ne 09:00 UTC
Vėjas 5 kt iš Vakarų/Pietvakarių
Temperatūra 13°C
Drėgmė 58%
Slėgis 1028 hPa
Matomumas 10 km arba daugiau
nėra debesų žemiau 1500 m ir nėra kamuolinių lietaus debesų

METAR: LUBM 280900Z 25005KT CAVOK 13/05 Q1028 R25/CLRD65

Laikas: 14:25 (11:25 UTC)


TAF: trūkstamas

Orai ataskaitas ir orų prognozės (METAR, TAF).

turimą stotys yra geltonos ir raudonos taškus žemėlapyje.

Perkelti pele per norėdami pamatyti stoties vardą.

Tada spustelėkite, norėdami matyti oro stebėjimo ir prognozės.

Norėdami pakeisti žemėlapį: spustelėkite ant žalios mygtukų su juodo kryžiaus žemyn,; žalią mygtuką su brūkšneliu, jei norite nutolinti; arba žalių rodyklių gretimoms žemėlapius.


METAR-TAF: